sensor_id;sensor_type;location;lat;lon;timestamp;temperature;humidity
38488;DHT22;57384;51.986;4.458;2022-12-18T00:00:23;-1.20;84.30
38488;DHT22;57384;51.986;4.458;2022-12-18T00:03:09;-1.20;84.30
38488;DHT22;57384;51.986;4.458;2022-12-18T00:05:57;-1.20;84.30
38488;DHT22;57384;51.986;4.458;2022-12-18T00:08:44;-1.20;84.30
38488;DHT22;57384;51.986;4.458;2022-12-18T00:11:32;-1.20;84.30
38488;DHT22;57384;51.986;4.458;2022-12-18T00:14:17;-1.20;84.30
38488;DHT22;57384;51.986;4.458;2022-12-18T00:17:01;-1.20;84.30
38488;DHT22;57384;51.986;4.458;2022-12-18T00:19:47;-1.20;84.30
38488;DHT22;57384;51.986;4.458;2022-12-18T00:22:32;-1.20;84.30
38488;DHT22;57384;51.986;4.458;2022-12-18T00:25:18;-1.20;84.20
38488;DHT22;57384;51.986;4.458;2022-12-18T00:28:03;-1.30;84.20
38488;DHT22;57384;51.986;4.458;2022-12-18T00:30:48;-1.20;84.20
38488;DHT22;57384;51.986;4.458;2022-12-18T00:33:32;-1.20;84.20
38488;DHT22;57384;51.986;4.458;2022-12-18T00:36:19;-1.20;84.10
38488;DHT22;57384;51.986;4.458;2022-12-18T00:39:04;-1.20;84.20
38488;DHT22;57384;51.986;4.458;2022-12-18T00:41:49;-1.20;84.20
38488;DHT22;57384;51.986;4.458;2022-12-18T00:44:36;-1.20;84.10
38488;DHT22;57384;51.986;4.458;2022-12-18T00:47:23;-1.20;84.10
38488;DHT22;57384;51.986;4.458;2022-12-18T00:50:08;-1.20;84.70
38488;DHT22;57384;51.986;4.458;2022-12-18T00:52:53;-1.20;84.10
38488;DHT22;57384;51.986;4.458;2022-12-18T00:55:41;-1.20;84.10
38488;DHT22;57384;51.986;4.458;2022-12-18T00:58:26;-1.20;84.10
38488;DHT22;57384;51.986;4.458;2022-12-18T01:01:10;-1.20;84.10
38488;DHT22;57384;51.986;4.458;2022-12-18T01:03:54;-1.20;84.10
38488;DHT22;57384;51.986;4.458;2022-12-18T01:06:38;-1.20;84.10
38488;DHT22;57384;51.986;4.458;2022-12-18T01:09:22;-1.20;84.10
38488;DHT22;57384;51.986;4.458;2022-12-18T01:12:09;-1.20;84.10
38488;DHT22;57384;51.986;4.458;2022-12-18T01:14:56;-1.20;84.20
38488;DHT22;57384;51.986;4.458;2022-12-18T01:17:41;-1.20;84.10
38488;DHT22;57384;51.986;4.458;2022-12-18T01:20:34;-1.20;84.10
38488;DHT22;57384;51.986;4.458;2022-12-18T01:23:21;-1.30;84.10
38488;DHT22;57384;51.986;4.458;2022-12-18T01:26:19;-1.20;84.10
38488;DHT22;57384;51.986;4.458;2022-12-18T01:29:13;-1.30;84.10
38488;DHT22;57384;51.986;4.458;2022-12-18T01:32:00;-1.30;84.10
38488;DHT22;57384;51.986;4.458;2022-12-18T01:34:44;-1.30;84.10
38488;DHT22;57384;51.986;4.458;2022-12-18T01:37:29;-1.30;84.10
38488;DHT22;57384;51.986;4.458;2022-12-18T01:40:15;-1.30;84.20
38488;DHT22;57384;51.986;4.458;2022-12-18T01:42:59;-1.30;84.20
38488;DHT22;57384;51.986;4.458;2022-12-18T01:45:44;-1.40;84.20
38488;DHT22;57384;51.986;4.458;2022-12-18T01:48:30;-1.40;84.20
38488;DHT22;57384;51.986;4.458;2022-12-18T01:51:15;-1.40;84.60
38488;DHT22;57384;51.986;4.458;2022-12-18T01:53:59;-1.40;84.20
38488;DHT22;57384;51.986;4.458;2022-12-18T01:56:44;-1.40;84.20
38488;DHT22;57384;51.986;4.458;2022-12-18T01:59:29;-1.40;84.30
38488;DHT22;57384;51.986;4.458;2022-12-18T02:02:16;-1.50;84.20
38488;DHT22;57384;51.986;4.458;2022-12-18T02:05:03;-1.50;84.30
38488;DHT22;57384;51.986;4.458;2022-12-18T02:29:02;-1.70;84.20
38488;DHT22;57384;51.986;4.458;2022-12-18T02:31:52;-1.70;84.30
38488;DHT22;57384;51.986;4.458;2022-12-18T02:34:39;-1.70;84.30
38488;DHT22;57384;51.986;4.458;2022-12-18T02:37:26;-1.70;84.30
38488;DHT22;57384;51.986;4.458;2022-12-18T02:40:12;-1.80;84.20
38488;DHT22;57384;51.986;4.458;2022-12-18T02:43:15;-1.80;84.30
38488;DHT22;57384;51.986;4.458;2022-12-18T02:46:00;-1.80;84.30
38488;DHT22;57384;51.986;4.458;2022-12-18T02:55:28;-1.80;84.20
38488;DHT22;57384;51.986;4.458;2022-12-18T03:01:58;-1.90;84.20
38488;DHT22;57384;51.986;4.458;2022-12-18T03:04:55;-1.90;84.10
38488;DHT22;57384;51.986;4.458;2022-12-18T03:08:07;-1.90;84.10
38488;DHT22;57384;51.986;4.458;2022-12-18T03:11:06;-1.90;84.10
38488;DHT22;57384;51.986;4.458;2022-12-18T03:13:55;-1.90;84.10
38488;DHT22;57384;51.986;4.458;2022-12-18T03:16:44;-1.90;84.10
38488;DHT22;57384;51.986;4.458;2022-12-18T03:19:34;-1.90;84.10
38488;DHT22;57384;51.986;4.458;2022-12-18T03:22:20;-1.90;84.10
38488;DHT22;57384;51.986;4.458;2022-12-18T03:25:09;-1.80;84.20
38488;DHT22;57384;51.986;4.458;2022-12-18T03:27:56;-1.90;84.10
38488;DHT22;57384;51.986;4.458;2022-12-18T03:30:45;-1.90;84.10
38488;DHT22;57384;51.986;4.458;2022-12-18T03:33:54;-1.90;84.10
38488;DHT22;57384;51.986;4.458;2022-12-18T03:36:39;-2.00;84.10
38488;DHT22;57384;51.986;4.458;2022-12-18T03:39:24;-2.00;84.00
38488;DHT22;57384;51.986;4.458;2022-12-18T03:48:17;-2.00;84.10
38488;DHT22;57384;51.986;4.458;2022-12-18T03:51:09;-2.00;84.10
38488;DHT22;57384;51.986;4.458;2022-12-18T03:54:00;-2.00;84.10
38488;DHT22;57384;51.986;4.458;2022-12-18T03:56:51;-2.00;84.10
38488;DHT22;57384;51.986;4.458;2022-12-18T03:59:39;-2.00;84.10
38488;DHT22;57384;51.986;4.458;2022-12-18T04:02:26;-2.00;84.10
38488;DHT22;57384;51.986;4.458;2022-12-18T04:05:13;-2.10;84.10
38488;DHT22;57384;51.986;4.458;2022-12-18T04:08:00;-2.10;84.10
38488;DHT22;57384;51.986;4.458;2022-12-18T04:10:44;-2.10;84.10
38488;DHT22;57384;51.986;4.458;2022-12-18T04:13:33;-2.10;84.10
38488;DHT22;57384;51.986;4.458;2022-12-18T04:16:17;-2.10;84.10
38488;DHT22;57384;51.986;4.458;2022-12-18T04:19:04;-2.20;84.10
38488;DHT22;57384;51.986;4.458;2022-12-18T04:21:48;-2.20;84.10
38488;DHT22;57384;51.986;4.458;2022-12-18T04:24:33;-2.20;84.10
38488;DHT22;57384;51.986;4.458;2022-12-18T04:27:19;-2.20;84.10
38488;DHT22;57384;51.986;4.458;2022-12-18T04:30:03;-2.20;84.10
38488;DHT22;57384;51.986;4.458;2022-12-18T04:32:47;-2.20;84.10
38488;DHT22;57384;51.986;4.458;2022-12-18T04:35:38;-2.20;84.10
38488;DHT22;57384;51.986;4.458;2022-12-18T04:38:23;-2.30;84.10
38488;DHT22;57384;51.986;4.458;2022-12-18T04:41:07;-2.30;84.10
38488;DHT22;57384;51.986;4.458;2022-12-18T04:43:51;-2.30;84.10
38488;DHT22;57384;51.986;4.458;2022-12-18T04:46:35;-2.30;84.10
38488;DHT22;57384;51.986;4.458;2022-12-18T04:49:19;-2.30;84.10
38488;DHT22;57384;51.986;4.458;2022-12-18T04:52:06;-2.40;84.10
38488;DHT22;57384;51.986;4.458;2022-12-18T04:54:53;-2.40;84.10
38488;DHT22;57384;51.986;4.458;2022-12-18T04:58:04;-2.40;84.10
38488;DHT22;57384;51.986;4.458;2022-12-18T05:00:48;-2.40;84.10
38488;DHT22;57384;51.986;4.458;2022-12-18T05:03:32;-2.50;84.00
38488;DHT22;57384;51.986;4.458;2022-12-18T05:06:16;-2.50;84.10
38488;DHT22;57384;51.986;4.458;2022-12-18T05:09:00;-2.50;84.10
38488;DHT22;57384;51.986;4.458;2022-12-18T05:11:47;-2.50;84.10
38488;DHT22;57384;51.986;4.458;2022-12-18T05:14:31;-2.60;84.10
38488;DHT22;57384;51.986;4.458;2022-12-18T05:17:16;-2.60;84.10
38488;DHT22;57384;51.986;4.458;2022-12-18T05:20:00;-2.60;84.10
38488;DHT22;57384;51.986;4.458;2022-12-18T05:22:44;-2.60;84.10
38488;DHT22;57384;51.986;4.458;2022-12-18T05:25:28;-2.70;84.00
38488;DHT22;57384;51.986;4.458;2022-12-18T05:28:12;-2.60;84.10
38488;DHT22;57384;51.986;4.458;2022-12-18T05:30:58;-2.70;84.00
38488;DHT22;57384;51.986;4.458;2022-12-18T05:33:42;-2.70;84.00
38488;DHT22;57384;51.986;4.458;2022-12-18T05:36:26;-2.70;84.10
38488;DHT22;57384;51.986;4.458;2022-12-18T05:39:11;-2.80;84.50
38488;DHT22;57384;51.986;4.458;2022-12-18T05:41:54;-2.80;84.00
38488;DHT22;57384;51.986;4.458;2022-12-18T05:44:39;-2.80;84.00
38488;DHT22;57384;51.986;4.458;2022-12-18T05:47:23;-2.80;84.00
38488;DHT22;57384;51.986;4.458;2022-12-18T05:50:13;-2.80;84.00
38488;DHT22;57384;51.986;4.458;2022-12-18T05:52:58;-2.80;84.00
38488;DHT22;57384;51.986;4.458;2022-12-18T05:55:48;-2.90;83.90
38488;DHT22;57384;51.986;4.458;2022-12-18T05:58:33;-2.90;84.00
38488;DHT22;57384;51.986;4.458;2022-12-18T06:01:21;-2.90;84.00
38488;DHT22;57384;51.986;4.458;2022-12-18T06:04:06;-3.00;83.90
38488;DHT22;57384;51.986;4.458;2022-12-18T06:06:50;-3.00;83.90
38488;DHT22;57384;51.986;4.458;2022-12-18T06:09:34;-3.00;83.90
38488;DHT22;57384;51.986;4.458;2022-12-18T06:12:19;-3.00;83.90
38488;DHT22;57384;51.986;4.458;2022-12-18T06:15:09;-3.00;83.90
38488;DHT22;57384;51.986;4.458;2022-12-18T06:17:55;-3.00;83.90
38488;DHT22;57384;51.986;4.458;2022-12-18T06:20:42;-3.00;83.90
38488;DHT22;57384;51.986;4.458;2022-12-18T06:23:26;-3.00;83.90
38488;DHT22;57384;51.986;4.458;2022-12-18T06:26:12;-3.10;83.80
38488;DHT22;57384;51.986;4.458;2022-12-18T06:28:56;-3.10;83.80
38488;DHT22;57384;51.986;4.458;2022-12-18T06:31:40;-3.10;83.80
38488;DHT22;57384;51.986;4.458;2022-12-18T06:34:24;-3.10;83.80
38488;DHT22;57384;51.986;4.458;2022-12-18T06:37:08;-3.10;83.80
38488;DHT22;57384;51.986;4.458;2022-12-18T06:39:53;-3.10;83.80
38488;DHT22;57384;51.986;4.458;2022-12-18T06:42:37;-3.20;83.70
38488;DHT22;57384;51.986;4.458;2022-12-18T06:45:23;-3.20;83.70
38488;DHT22;57384;51.986;4.458;2022-12-18T06:48:07;-3.20;83.70
38488;DHT22;57384;51.986;4.458;2022-12-18T06:50:51;-3.20;83.70
38488;DHT22;57384;51.986;4.458;2022-12-18T06:53:35;-3.20;83.70
38488;DHT22;57384;51.986;4.458;2022-12-18T06:56:19;-3.20;83.70
38488;DHT22;57384;51.986;4.458;2022-12-18T06:59:03;-3.20;83.70
38488;DHT22;57384;51.986;4.458;2022-12-18T07:01:47;-3.30;83.70
38488;DHT22;57384;51.986;4.458;2022-12-18T07:04:37;-3.30;83.70
38488;DHT22;57384;51.986;4.458;2022-12-18T07:07:23;-3.30;83.70
38488;DHT22;57384;51.986;4.458;2022-12-18T07:10:07;-3.30;83.70
38488;DHT22;57384;51.986;4.458;2022-12-18T07:12:52;-3.30;83.70
38488;DHT22;57384;51.986;4.458;2022-12-18T07:15:36;-3.30;83.70
38488;DHT22;57384;51.986;4.458;2022-12-18T07:18:23;-3.30;83.70
38488;DHT22;57384;51.986;4.458;2022-12-18T07:21:10;-3.40;83.60
38488;DHT22;57384;51.986;4.458;2022-12-18T07:23:55;-3.40;83.60
38488;DHT22;57384;51.986;4.458;2022-12-18T07:26:39;-3.40;83.60
38488;DHT22;57384;51.986;4.458;2022-12-18T07:29:23;-3.40;83.60
38488;DHT22;57384;51.986;4.458;2022-12-18T07:32:07;-3.40;83.60
38488;DHT22;57384;51.986;4.458;2022-12-18T07:34:51;-3.40;83.60
38488;DHT22;57384;51.986;4.458;2022-12-18T07:37:36;-3.40;83.60
38488;DHT22;57384;51.986;4.458;2022-12-18T07:40:20;-3.40;83.60
38488;DHT22;57384;51.986;4.458;2022-12-18T07:43:04;-3.40;83.60
38488;DHT22;57384;51.986;4.458;2022-12-18T07:45:49;-3.40;83.50
38488;DHT22;57384;51.986;4.458;2022-12-18T07:48:33;-3.40;83.50
38488;DHT22;57384;51.986;4.458;2022-12-18T07:51:18;-3.40;83.50
38488;DHT22;57384;51.986;4.458;2022-12-18T07:54:02;-3.40;83.50
38488;DHT22;57384;51.986;4.458;2022-12-18T07:56:46;-3.50;83.40
38488;DHT22;57384;51.986;4.458;2022-12-18T07:59:30;-3.40;83.50
38488;DHT22;57384;51.986;4.458;2022-12-18T08:02:14;-3.50;83.40
38488;DHT22;57384;51.986;4.458;2022-12-18T08:04:59;-3.50;83.40
38488;DHT22;57384;51.986;4.458;2022-12-18T08:07:43;-3.40;83.40
38488;DHT22;57384;51.986;4.458;2022-12-18T08:10:27;-3.50;83.40
38488;DHT22;57384;51.986;4.458;2022-12-18T08:13:11;-3.50;83.30
38488;DHT22;57384;51.986;4.458;2022-12-18T08:15:59;-3.50;83.30
38488;DHT22;57384;51.986;4.458;2022-12-18T08:18:44;-3.50;83.30
38488;DHT22;57384;51.986;4.458;2022-12-18T08:21:30;-3.50;83.30
38488;DHT22;57384;51.986;4.458;2022-12-18T08:24:14;-3.50;83.30
38488;DHT22;57384;51.986;4.458;2022-12-18T08:26:58;-3.50;83.20
38488;DHT22;57384;51.986;4.458;2022-12-18T08:29:42;-3.50;83.20
38488;DHT22;57384;51.986;4.458;2022-12-18T08:32:27;-3.40;83.30
38488;DHT22;57384;51.986;4.458;2022-12-18T08:35:11;-3.50;83.30
38488;DHT22;57384;51.986;4.458;2022-12-18T08:37:55;-3.40;83.80
38488;DHT22;57384;51.986;4.458;2022-12-18T08:40:42;-3.40;83.20
38488;DHT22;57384;51.986;4.458;2022-12-18T08:43:26;-3.40;83.20
38488;DHT22;57384;51.986;4.458;2022-12-18T08:46:19;-3.40;83.10
38488;DHT22;57384;51.986;4.458;2022-12-18T08:49:07;-3.40;83.10
38488;DHT22;57384;51.986;4.458;2022-12-18T08:51:54;-3.40;83.10
38488;DHT22;57384;51.986;4.458;2022-12-18T08:54:38;-3.40;83.10
38488;DHT22;57384;51.986;4.458;2022-12-18T08:57:26;-3.30;83.10
38488;DHT22;57384;51.986;4.458;2022-12-18T09:00:10;-3.30;83.10
38488;DHT22;57384;51.986;4.458;2022-12-18T09:02:57;-3.30;83.00
38488;DHT22;57384;51.986;4.458;2022-12-18T09:05:45;-3.30;83.00
38488;DHT22;57384;51.986;4.458;2022-12-18T09:08:30;-3.30;82.90
38488;DHT22;57384;51.986;4.458;2022-12-18T09:11:19;-3.30;82.90
38488;DHT22;57384;51.986;4.458;2022-12-18T09:14:09;-3.20;82.90
38488;DHT22;57384;51.986;4.458;2022-12-18T09:16:54;-3.20;82.90
38488;DHT22;57384;51.986;4.458;2022-12-18T09:19:38;-3.20;82.90
38488;DHT22;57384;51.986;4.458;2022-12-18T09:22:22;-3.20;82.90
38488;DHT22;57384;51.986;4.458;2022-12-18T09:25:06;-3.10;82.90
38488;DHT22;57384;51.986;4.458;2022-12-18T09:28:12;-3.10;82.90
38488;DHT22;57384;51.986;4.458;2022-12-18T09:30:55;-3.10;82.80
38488;DHT22;57384;51.986;4.458;2022-12-18T09:33:39;-3.10;82.80
38488;DHT22;57384;51.986;4.458;2022-12-18T09:36:41;-3.10;82.70
38488;DHT22;57384;51.986;4.458;2022-12-18T09:39:29;-3.00;82.80
38488;DHT22;57384;51.986;4.458;2022-12-18T09:42:20;-3.00;82.70
38488;DHT22;57384;51.986;4.458;2022-12-18T09:45:11;-2.90;82.80
38488;DHT22;57384;51.986;4.458;2022-12-18T09:47:57;-3.00;83.30
38488;DHT22;57384;51.986;4.458;2022-12-18T09:50:50;-2.90;82.70
38488;DHT22;57384;51.986;4.458;2022-12-18T09:53:40;-2.80;82.70
38488;DHT22;57384;51.986;4.458;2022-12-18T09:56:28;-2.90;82.60
38488;DHT22;57384;51.986;4.458;2022-12-18T09:59:36;-2.70;82.70
38488;DHT22;57384;51.986;4.458;2022-12-18T10:02:25;-2.70;82.70
38488;DHT22;57384;51.986;4.458;2022-12-18T10:05:24;-2.70;82.60
38488;DHT22;57384;51.986;4.458;2022-12-18T10:08:16;-2.70;82.70
38488;DHT22;57384;51.986;4.458;2022-12-18T10:11:30;-2.70;82.50
38488;DHT22;57384;51.986;4.458;2022-12-18T10:17:42;-2.60;82.50
38488;DHT22;57384;51.986;4.458;2022-12-18T10:20:39;-2.60;82.50
38488;DHT22;57384;51.986;4.458;2022-12-18T10:26:48;-2.50;82.60
38488;DHT22;57384;51.986;4.458;2022-12-18T10:29:32;-2.40;82.50
38488;DHT22;57384;51.986;4.458;2022-12-18T10:32:27;-2.40;82.50
38488;DHT22;57384;51.986;4.458;2022-12-18T10:35:19;-2.40;82.50
38488;DHT22;57384;51.986;4.458;2022-12-18T10:38:37;-2.30;82.60
38488;DHT22;57384;51.986;4.458;2022-12-18T10:44:26;-2.30;82.50
38488;DHT22;57384;51.986;4.458;2022-12-18T10:47:19;-2.20;82.60
38488;DHT22;57384;51.986;4.458;2022-12-18T10:50:03;-2.20;82.50
38488;DHT22;57384;51.986;4.458;2022-12-18T10:52:54;-2.10;82.50
38488;DHT22;57384;51.986;4.458;2022-12-18T10:55:45;-2.20;82.50
38488;DHT22;57384;51.986;4.458;2022-12-18T10:58:33;-2.10;82.50
38488;DHT22;57384;51.986;4.458;2022-12-18T11:01:21;-2.00;82.50
38488;DHT22;57384;51.986;4.458;2022-12-18T11:04:07;-2.00;82.50
38488;DHT22;57384;51.986;4.458;2022-12-18T11:06:59;-1.90;82.50
38488;DHT22;57384;51.986;4.458;2022-12-18T11:09:43;-2.00;82.30
38488;DHT22;57384;51.986;4.458;2022-12-18T11:12:28;-1.90;82.40
38488;DHT22;57384;51.986;4.458;2022-12-18T11:15:23;-1.90;82.40
38488;DHT22;57384;51.986;4.458;2022-12-18T11:18:34;-1.80;82.50
38488;DHT22;57384;51.986;4.458;2022-12-18T11:21:19;-1.80;82.50
38488;DHT22;57384;51.986;4.458;2022-12-18T11:24:34;-1.70;82.40
38488;DHT22;57384;51.986;4.458;2022-12-18T11:27:19;-1.60;82.50
38488;DHT22;57384;51.986;4.458;2022-12-18T11:30:29;-1.60;82.40
38488;DHT22;57384;51.986;4.458;2022-12-18T11:33:21;-1.60;82.40
38488;DHT22;57384;51.986;4.458;2022-12-18T11:36:08;-1.50;82.50
38488;DHT22;57384;51.986;4.458;2022-12-18T11:38:54;-1.50;82.50
38488;DHT22;57384;51.986;4.458;2022-12-18T11:42:04;-1.40;82.50
38488;DHT22;57384;51.986;4.458;2022-12-18T11:45:30;-1.40;82.50
38488;DHT22;57384;51.986;4.458;2022-12-18T11:48:55;-1.30;82.50
38488;DHT22;57384;51.986;4.458;2022-12-18T11:58:16;-1.30;82.40
38488;DHT22;57384;51.986;4.458;2022-12-18T12:01:28;-1.20;82.40
38488;DHT22;57384;51.986;4.458;2022-12-18T12:07:26;-1.10;82.40
38488;DHT22;57384;51.986;4.458;2022-12-18T12:17:06;-1.00;82.50
38488;DHT22;57384;51.986;4.458;2022-12-18T12:20:08;-1.00;82.40
38488;DHT22;57384;51.986;4.458;2022-12-18T12:26:07;-0.90;82.50
38488;DHT22;57384;51.986;4.458;2022-12-18T12:35:32;-0.80;82.50
38488;DHT22;57384;51.986;4.458;2022-12-18T12:38:31;-0.80;82.50
38488;DHT22;57384;51.986;4.458;2022-12-18T12:41:21;-0.70;82.50
38488;DHT22;57384;51.986;4.458;2022-12-18T12:44:16;-0.70;82.50
38488;DHT22;57384;51.986;4.458;2022-12-18T12:47:10;-0.70;82.50
38488;DHT22;57384;51.986;4.458;2022-12-18T12:49:59;-0.70;82.60
38488;DHT22;57384;51.986;4.458;2022-12-18T12:52:52;-0.60;82.60
38488;DHT22;57384;51.986;4.458;2022-12-18T12:55:37;-0.60;82.50
38488;DHT22;57384;51.986;4.458;2022-12-18T13:04:32;-0.50;82.50
38488;DHT22;57384;51.986;4.458;2022-12-18T13:07:24;-0.50;82.50
38488;DHT22;57384;51.986;4.458;2022-12-18T13:13:16;-0.50;82.50
38488;DHT22;57384;51.986;4.458;2022-12-18T13:16:09;-0.40;82.60
38488;DHT22;57384;51.986;4.458;2022-12-18T13:18:55;-0.40;82.60
38488;DHT22;57384;51.986;4.458;2022-12-18T13:21:40;-0.40;82.50
38488;DHT22;57384;51.986;4.458;2022-12-18T13:24:30;-0.40;82.50
38488;DHT22;57384;51.986;4.458;2022-12-18T13:36:30;-0.30;82.50
38488;DHT22;57384;51.986;4.458;2022-12-18T13:44:48;-0.20;82.50
38488;DHT22;57384;51.986;4.458;2022-12-18T13:47:37;-0.20;82.50
38488;DHT22;57384;51.986;4.458;2022-12-18T13:50:27;-0.20;82.50
38488;DHT22;57384;51.986;4.458;2022-12-18T13:53:26;-0.20;82.50
38488;DHT22;57384;51.986;4.458;2022-12-18T13:56:21;-0.10;82.50
38488;DHT22;57384;51.986;4.458;2022-12-18T14:02:00;-0.20;82.50
38488;DHT22;57384;51.986;4.458;2022-12-18T14:04:52;-0.10;82.50
38488;DHT22;57384;51.986;4.458;2022-12-18T14:07:39;-0.10;82.50
38488;DHT22;57384;51.986;4.458;2022-12-18T14:10:23;-0.10;82.50
38488;DHT22;57384;51.986;4.458;2022-12-18T14:13:09;-0.10;82.50
38488;DHT22;57384;51.986;4.458;2022-12-18T14:15:56;0.00;82.50
38488;DHT22;57384;51.986;4.458;2022-12-18T14:18:52;0.00;82.50
38488;DHT22;57384;51.986;4.458;2022-12-18T14:21:45;0.00;82.50
38488;DHT22;57384;51.986;4.458;2022-12-18T14:24:31;0.00;83.00
38488;DHT22;57384;51.986;4.458;2022-12-18T14:27:25;0.00;82.40
38488;DHT22;57384;51.986;4.458;2022-12-18T14:30:32;0.10;82.50
38488;DHT22;57384;51.986;4.458;2022-12-18T14:33:28;0.10;82.50
38488;DHT22;57384;51.986;4.458;2022-12-18T14:36:28;0.00;82.40
38488;DHT22;57384;51.986;4.458;2022-12-18T14:39:17;0.10;82.40
38488;DHT22;57384;51.986;4.458;2022-12-18T14:42:01;0.10;82.40
38488;DHT22;57384;51.986;4.458;2022-12-18T14:44:46;0.10;82.50
38488;DHT22;57384;51.986;4.458;2022-12-18T14:47:30;0.10;82.40
38488;DHT22;57384;51.986;4.458;2022-12-18T14:50:14;0.10;82.40
38488;DHT22;57384;51.986;4.458;2022-12-18T14:53:01;0.10;82.40
38488;DHT22;57384;51.986;4.458;2022-12-18T14:55:47;0.10;82.50
38488;DHT22;57384;51.986;4.458;2022-12-18T14:58:31;0.20;82.50
38488;DHT22;57384;51.986;4.458;2022-12-18T15:01:28;0.10;82.40
38488;DHT22;57384;51.986;4.458;2022-12-18T15:04:40;0.20;82.40
38488;DHT22;57384;51.986;4.458;2022-12-18T15:07:24;0.20;82.40
38488;DHT22;57384;51.986;4.458;2022-12-18T15:10:45;0.20;82.30
38488;DHT22;57384;51.986;4.458;2022-12-18T15:13:32;0.20;82.40
38488;DHT22;57384;51.986;4.458;2022-12-18T15:16:20;0.10;82.30
38488;DHT22;57384;51.986;4.458;2022-12-18T15:19:07;0.20;82.40
38488;DHT22;57384;51.986;4.458;2022-12-18T15:21:51;0.20;82.40
38488;DHT22;57384;51.986;4.458;2022-12-18T15:24:36;0.20;82.30
38488;DHT22;57384;51.986;4.458;2022-12-18T15:33:24;0.30;82.30
38488;DHT22;57384;51.986;4.458;2022-12-18T15:36:11;0.30;82.30
38488;DHT22;57384;51.986;4.458;2022-12-18T15:38:56;0.30;82.20
38488;DHT22;57384;51.986;4.458;2022-12-18T15:41:40;0.30;82.20
38488;DHT22;57384;51.986;4.458;2022-12-18T15:44:24;0.30;82.20
38488;DHT22;57384;51.986;4.458;2022-12-18T15:47:12;0.30;82.70
38488;DHT22;57384;51.986;4.458;2022-12-18T15:49:56;0.30;82.10
38488;DHT22;57384;51.986;4.458;2022-12-18T15:52:45;0.30;82.10
38488;DHT22;57384;51.986;4.458;2022-12-18T15:55:30;0.30;82.10
38488;DHT22;57384;51.986;4.458;2022-12-18T15:58:14;0.30;82.10
38488;DHT22;57384;51.986;4.458;2022-12-18T16:00:59;0.30;81.90
38488;DHT22;57384;51.986;4.458;2022-12-18T16:03:43;0.30;81.90
38488;DHT22;57384;51.986;4.458;2022-12-18T16:06:28;0.40;82.00
38488;DHT22;57384;51.986;4.458;2022-12-18T16:09:11;0.40;82.00
38488;DHT22;57384;51.986;4.458;2022-12-18T16:11:56;0.40;81.90
38488;DHT22;57384;51.986;4.458;2022-12-18T16:14:51;0.40;82.00
38488;DHT22;57384;51.986;4.458;2022-12-18T16:17:35;0.40;81.90
38488;DHT22;57384;51.986;4.458;2022-12-18T16:20:21;0.40;81.90
38488;DHT22;57384;51.986;4.458;2022-12-18T16:23:05;0.40;82.20
38488;DHT22;57384;51.986;4.458;2022-12-18T16:25:50;0.50;81.90
38488;DHT22;57384;51.986;4.458;2022-12-18T16:28:34;0.40;81.90
38488;DHT22;57384;51.986;4.458;2022-12-18T16:31:18;0.40;81.80
38488;DHT22;57384;51.986;4.458;2022-12-18T16:34:19;0.50;81.90
38488;DHT22;57384;51.986;4.458;2022-12-18T16:37:05;0.50;81.90
38488;DHT22;57384;51.986;4.458;2022-12-18T16:39:50;0.50;81.80
38488;DHT22;57384;51.986;4.458;2022-12-18T16:42:38;0.50;81.70
38488;DHT22;57384;51.986;4.458;2022-12-18T16:45:23;0.50;81.70
38488;DHT22;57384;51.986;4.458;2022-12-18T16:48:07;0.50;81.80
38488;DHT22;57384;51.986;4.458;2022-12-18T16:50:58;0.50;81.70
38488;DHT22;57384;51.986;4.458;2022-12-18T16:53:43;0.50;81.70
38488;DHT22;57384;51.986;4.458;2022-12-18T16:56:27;0.50;81.70
38488;DHT22;57384;51.986;4.458;2022-12-18T16:59:11;0.50;81.60
38488;DHT22;57384;51.986;4.458;2022-12-18T17:01:56;0.60;81.70
38488;DHT22;57384;51.986;4.458;2022-12-18T17:04:40;0.60;81.70
38488;DHT22;57384;51.986;4.458;2022-12-18T17:07:25;0.60;81.60
38488;DHT22;57384;51.986;4.458;2022-12-18T17:10:09;0.60;81.70
38488;DHT22;57384;51.986;4.458;2022-12-18T17:12:54;0.60;81.60
38488;DHT22;57384;51.986;4.458;2022-12-18T17:15:37;0.60;81.60
38488;DHT22;57384;51.986;4.458;2022-12-18T17:18:22;0.60;81.60
38488;DHT22;57384;51.986;4.458;2022-12-18T17:21:09;0.60;81.60
38488;DHT22;57384;51.986;4.458;2022-12-18T17:23:53;0.70;81.70
38488;DHT22;57384;51.986;4.458;2022-12-18T17:26:38;0.70;81.70
38488;DHT22;57384;51.986;4.458;2022-12-18T17:29:25;0.70;81.60
38488;DHT22;57384;51.986;4.458;2022-12-18T17:32:14;0.70;81.60
38488;DHT22;57384;51.986;4.458;2022-12-18T17:35:05;0.70;81.50
38488;DHT22;57384;51.986;4.458;2022-12-18T17:37:50;0.70;81.50
38488;DHT22;57384;51.986;4.458;2022-12-18T17:40:34;0.70;81.50
38488;DHT22;57384;51.986;4.458;2022-12-18T17:43:27;0.80;81.60
38488;DHT22;57384;51.986;4.458;2022-12-18T17:46:13;0.80;81.70
38488;DHT22;57384;51.986;4.458;2022-12-18T17:48:58;0.80;81.60
38488;DHT22;57384;51.986;4.458;2022-12-18T17:51:48;0.80;81.60
38488;DHT22;57384;51.986;4.458;2022-12-18T17:54:32;0.80;81.60
38488;DHT22;57384;51.986;4.458;2022-12-18T17:57:16;0.80;81.60
38488;DHT22;57384;51.986;4.458;2022-12-18T18:00:01;0.80;81.60
38488;DHT22;57384;51.986;4.458;2022-12-18T18:02:45;0.80;81.60
38488;DHT22;57384;51.986;4.458;2022-12-18T18:05:29;0.80;81.60
38488;DHT22;57384;51.986;4.458;2022-12-18T18:08:14;0.90;81.60
38488;DHT22;57384;51.986;4.458;2022-12-18T18:11:05;0.90;81.60
38488;DHT22;57384;51.986;4.458;2022-12-18T18:13:49;0.90;81.60
38488;DHT22;57384;51.986;4.458;2022-12-18T18:16:40;0.90;81.50
38488;DHT22;57384;51.986;4.458;2022-12-18T18:19:24;0.90;81.50
38488;DHT22;57384;51.986;4.458;2022-12-18T18:22:09;1.00;81.60
38488;DHT22;57384;51.986;4.458;2022-12-18T18:24:53;1.00;81.60
38488;DHT22;57384;51.986;4.458;2022-12-18T18:27:37;1.00;81.60
38488;DHT22;57384;51.986;4.458;2022-12-18T18:30:24;1.00;81.60
38488;DHT22;57384;51.986;4.458;2022-12-18T18:33:08;1.00;81.60
38488;DHT22;57384;51.986;4.458;2022-12-18T18:35:52;1.00;81.60
38488;DHT22;57384;51.986;4.458;2022-12-18T18:38:36;1.10;81.70
38488;DHT22;57384;51.986;4.458;2022-12-18T18:41:20;1.10;81.70
38488;DHT22;57384;51.986;4.458;2022-12-18T18:44:05;1.10;81.70
38488;DHT22;57384;51.986;4.458;2022-12-18T18:46:49;1.10;81.70
38488;DHT22;57384;51.986;4.458;2022-12-18T18:49:34;1.20;81.80
38488;DHT22;57384;51.986;4.458;2022-12-18T18:52:39;1.10;81.80
38488;DHT22;57384;51.986;4.458;2022-12-18T18:55:23;1.20;81.90
38488;DHT22;57384;51.986;4.458;2022-12-18T18:58:09;1.20;81.90
38488;DHT22;57384;51.986;4.458;2022-12-18T19:00:59;1.20;81.90
38488;DHT22;57384;51.986;4.458;2022-12-18T19:03:44;1.20;81.90
38488;DHT22;57384;51.986;4.458;2022-12-18T19:06:28;1.20;81.90
38488;DHT22;57384;51.986;4.458;2022-12-18T19:09:13;1.30;82.00
38488;DHT22;57384;51.986;4.458;2022-12-18T19:12:00;1.30;82.10
38488;DHT22;57384;51.986;4.458;2022-12-18T19:14:44;1.30;82.10
38488;DHT22;57384;51.986;4.458;2022-12-18T19:17:29;1.30;82.10
38488;DHT22;57384;51.986;4.458;2022-12-18T19:20:13;1.30;82.10
38488;DHT22;57384;51.986;4.458;2022-12-18T19:22:57;1.30;82.10
38488;DHT22;57384;51.986;4.458;2022-12-18T19:25:42;1.30;82.10
38488;DHT22;57384;51.986;4.458;2022-12-18T19:28:26;1.40;82.20
38488;DHT22;57384;51.986;4.458;2022-12-18T19:31:13;1.40;82.20